createdAt,value
2023-02-22T00:00:00.742Z,95165.00
2023-02-22T00:01:00.750Z,95165.00
2023-02-22T00:02:00.781Z,95161.00
2023-02-22T00:03:00.831Z,95165.00
2023-02-22T00:04:00.811Z,95161.00
2023-02-22T00:05:00.809Z,95163.00
2023-02-22T00:06:00.802Z,95159.00
2023-02-22T00:07:01.696Z,95161.00
2023-02-22T00:08:00.855Z,95161.00
2023-02-22T00:09:00.827Z,95163.00
2023-02-22T00:10:00.857Z,95157.00
2023-02-22T00:11:00.814Z,95161.00
2023-02-22T00:12:00.851Z,95161.00
2023-02-22T00:13:00.853Z,95157.00
2023-02-22T00:14:00.899Z,95159.00
2023-02-22T00:15:00.908Z,95157.00
2023-02-22T00:16:00.946Z,95159.00
2023-02-22T00:17:00.914Z,95159.00
2023-02-22T00:18:00.926Z,95159.00
2023-02-22T00:19:00.924Z,95157.00
2023-02-22T00:20:00.915Z,95155.00
2023-02-22T00:21:00.975Z,95157.00
2023-02-22T00:22:00.956Z,95157.00
2023-02-22T00:23:00.976Z,95159.00
2023-02-22T00:24:00.977Z,95157.00
2023-02-22T00:25:00.975Z,95157.00
2023-02-22T00:26:00.984Z,95159.00
2023-02-22T00:27:00.983Z,95159.00
2023-02-22T00:28:00.999Z,95157.00
2023-02-22T00:29:01.007Z,95157.00
2023-02-22T00:30:01.034Z,95157.00
2023-02-22T00:31:01.022Z,95155.00
2023-02-22T00:32:01.128Z,95155.00
2023-02-22T00:33:01.070Z,95151.00
2023-02-22T00:34:01.067Z,95153.00
2023-02-22T00:35:01.090Z,95155.00
2023-02-22T00:36:01.076Z,95155.00
2023-02-22T00:37:01.096Z,95155.00
2023-02-22T00:38:01.091Z,95155.00
2023-02-22T00:39:01.100Z,95155.00
2023-02-22T00:40:01.102Z,95153.00
2023-02-22T00:41:01.141Z,95155.00
2023-02-22T00:42:01.107Z,95153.00
2023-02-22T00:43:01.133Z,95153.00
2023-02-22T00:44:01.131Z,95153.00
2023-02-22T00:45:01.131Z,95153.00
2023-02-22T00:46:01.202Z,95151.00
2023-02-22T00:47:01.160Z,95151.00
2023-02-22T00:48:01.167Z,95151.00
2023-02-22T00:49:01.184Z,95149.00
2023-02-22T00:50:01.174Z,95149.00
2023-02-22T00:51:01.172Z,95149.00
2023-02-22T00:52:01.194Z,95147.00
2023-02-22T00:53:01.184Z,95147.00
2023-02-22T00:54:01.188Z,95147.00
2023-02-22T00:55:01.226Z,95145.00
2023-02-22T00:56:01.212Z,95145.00
2023-02-22T00:57:01.266Z,95143.00
2023-02-22T00:58:01.251Z,95141.00
2023-02-22T00:59:01.259Z,95143.00
2023-02-22T01:00:01.277Z,95143.00
2023-02-22T01:01:01.290Z,95141.00
2023-02-22T01:02:01.358Z,95139.00
2023-02-22T01:03:01.258Z,95139.00
2023-02-22T01:04:01.306Z,95139.00
2023-02-22T01:05:01.291Z,95137.00
2023-02-22T01:06:01.287Z,95135.00
2023-02-22T01:07:01.293Z,95135.00
2023-02-22T01:08:01.315Z,95133.00
2023-02-22T01:09:01.315Z,95133.00
2023-02-22T01:10:01.343Z,95133.00
2023-02-22T01:11:01.332Z,95133.00
2023-02-22T01:12:01.321Z,95131.00
2023-02-22T01:13:01.395Z,95131.00
2023-02-22T01:14:01.350Z,95129.00
2023-02-22T01:15:01.345Z,95127.00
2023-02-22T01:16:01.370Z,95124.00
2023-02-22T01:17:01.353Z,95124.00
2023-02-22T01:18:01.380Z,95124.00
2023-02-22T01:19:01.396Z,95120.00
2023-02-22T01:20:01.387Z,95118.00
2023-02-22T01:21:01.396Z,95118.00
2023-02-22T01:22:01.396Z,95116.00
2023-02-22T01:23:01.452Z,95116.00
2023-02-22T01:24:01.422Z,95114.00
2023-02-22T01:25:01.434Z,95110.00
2023-02-22T01:26:01.426Z,95110.00
2023-02-22T01:27:01.421Z,95106.00
2023-02-22T01:28:01.437Z,95106.00
2023-02-22T01:29:01.432Z,95104.00
2023-02-22T01:30:01.444Z,95104.00
2023-02-22T01:31:01.635Z,95102.00
2023-02-22T01:32:01.518Z,95102.00
2023-02-22T01:33:01.483Z,95102.00
2023-02-22T01:34:01.487Z,95100.00
2023-02-22T01:35:01.488Z,95098.00
2023-02-22T01:36:01.494Z,95096.00
2023-02-22T01:37:01.512Z,95098.00
2023-02-22T01:38:01.550Z,95096.00
2023-02-22T01:39:01.523Z,95096.00
2023-02-22T01:40:01.580Z,95094.00
2023-02-22T01:41:01.563Z,95096.00
2023-02-22T01:42:01.558Z,95092.00
2023-02-22T01:43:01.576Z,95094.00
2023-02-22T01:44:01.578Z,95092.00
2023-02-22T01:45:01.591Z,95090.00
2023-02-22T01:46:01.674Z,95090.00
2023-02-22T01:47:01.633Z,95088.00
2023-02-22T01:48:01.614Z,95090.00
2023-02-22T01:49:01.654Z,95088.00
2023-02-22T01:50:01.655Z,95088.00
2023-02-22T01:51:01.683Z,95088.00
2023-02-22T01:52:01.668Z,95086.00
2023-02-22T01:53:01.730Z,95086.00
2023-02-22T01:54:01.680Z,95085.00
2023-02-22T01:55:01.683Z,95085.00
2023-02-22T01:56:01.705Z,95083.00
2023-02-22T01:57:01.739Z,95080.00
2023-02-22T01:58:01.744Z,95080.00
2023-02-22T01:59:01.745Z,95080.00
2023-02-22T02:00:01.831Z,95078.00
2023-02-22T02:01:01.804Z,95078.00
2023-02-22T02:02:01.787Z,95077.00
2023-02-22T02:03:01.814Z,95077.00
2023-02-22T02:04:01.862Z,95078.00
2023-02-22T02:05:01.898Z,95078.00
2023-02-22T02:06:01.844Z,95075.00
2023-02-22T02:07:01.840Z,95078.00
2023-02-22T02:08:01.878Z,95078.00
2023-02-22T02:09:01.894Z,95078.00
2023-02-22T02:10:01.883Z,95078.00
2023-02-22T02:11:01.911Z,95077.00
2023-02-22T02:12:01.916Z,95077.00
2023-02-22T02:13:01.905Z,95075.00
2023-02-22T02:14:01.922Z,95073.00
2023-02-22T02:15:01.961Z,95071.00
2023-02-22T02:16:01.960Z,95071.00
2023-02-22T02:17:02.010Z,95067.00
2023-02-22T02:18:01.945Z,95069.00
2023-02-22T02:19:01.996Z,95067.00
2023-02-22T02:20:01.992Z,95069.00
2023-02-22T02:21:02.003Z,95067.00
2023-02-22T02:22:02.028Z,95065.00
2023-02-22T02:23:02.018Z,95065.00
2023-02-22T02:24:02.026Z,95065.00
2023-02-22T02:25:02.053Z,95065.00
2023-02-22T02:26:02.064Z,95063.00
2023-02-22T02:27:02.062Z,95065.00
2023-02-22T02:28:02.098Z,95063.00
2023-02-22T02:29:02.123Z,95063.00
2023-02-22T02:30:02.144Z,95063.00
2023-02-22T02:31:02.147Z,95059.00
2023-02-22T02:32:02.258Z,95059.00
2023-02-22T02:33:02.147Z,95057.00
2023-02-22T02:34:02.150Z,95059.00
2023-02-22T02:35:02.174Z,95057.00
2023-02-22T02:36:02.213Z,95055.00
2023-02-22T02:37:02.216Z,95057.00
2023-02-22T02:38:02.209Z,95055.00
2023-02-22T02:39:02.249Z,95055.00
2023-02-22T02:40:02.259Z,95055.00
2023-02-22T02:41:02.231Z,95055.00
2023-02-22T02:42:02.257Z,95055.00
2023-02-22T02:43:02.285Z,95055.00
2023-02-22T02:44:02.304Z,95055.00
2023-02-22T02:45:02.306Z,95053.00
2023-02-22T02:46:02.317Z,95053.00
2023-02-22T02:47:02.406Z,95055.00
2023-02-22T02:48:02.384Z,95055.00
2023-02-22T02:49:02.345Z,95051.00
2023-02-22T02:50:02.367Z,95049.00
2023-02-22T02:51:02.369Z,95051.00
2023-02-22T02:52:02.386Z,95049.00
2023-02-22T02:53:02.420Z,95049.00
2023-02-22T02:54:02.402Z,95049.00
2023-02-22T02:55:02.394Z,95043.00
2023-02-22T02:56:02.410Z,95043.00
2023-02-22T02:57:02.424Z,95045.00
2023-02-22T02:58:02.418Z,95047.00
2023-02-22T02:59:02.420Z,95047.00
2023-02-22T03:00:02.444Z,95045.00
2023-02-22T03:01:02.520Z,95047.00
2023-02-22T03:02:02.581Z,95047.00
2023-02-22T03:03:02.495Z,95043.00
2023-02-22T03:04:02.495Z,95039.00
2023-02-22T03:05:02.483Z,95041.00
2023-02-22T03:06:02.497Z,95038.00
2023-02-22T03:07:02.506Z,95038.00
2023-02-22T03:08:02.559Z,95039.00
2023-02-22T03:09:02.544Z,95039.00
2023-02-22T03:10:02.539Z,95038.00
2023-02-22T03:11:02.501Z,95036.00
2023-02-22T03:12:02.510Z,95039.00
2023-02-22T03:13:02.534Z,95038.00
2023-02-22T03:14:02.529Z,95036.00
2023-02-22T03:15:02.510Z,95034.00
2023-02-22T03:16:02.572Z,95034.00
2023-02-22T03:17:02.518Z,95036.00
2023-02-22T03:18:02.537Z,95034.00
2023-02-22T03:19:02.541Z,95032.00
2023-02-22T03:20:02.498Z,95034.00
2023-02-22T03:21:02.513Z,95032.00
2023-02-22T03:22:02.532Z,95030.00
2023-02-22T03:23:02.518Z,95032.00
2023-02-22T03:24:02.532Z,95030.00
2023-02-22T03:25:02.543Z,95030.00
2023-02-22T03:26:02.519Z,95028.00
2023-02-22T03:27:02.556Z,95028.00
2023-02-22T03:28:02.603Z,95030.00
2023-02-22T03:29:02.651Z,95030.00
2023-02-22T03:30:02.725Z,95032.00
2023-02-22T03:31:02.785Z,95030.00
2023-02-22T03:32:02.852Z,95034.00
2023-02-22T03:33:02.887Z,95034.00
2023-02-22T03:34:02.940Z,95032.00
2023-02-22T03:35:03.000Z,95032.00
2023-02-22T03:36:03.050Z,95032.00
2023-02-22T03:37:03.125Z,95030.00
2023-02-22T03:38:03.169Z,95032.00
2023-02-22T03:39:03.219Z,95032.00
2023-02-22T03:40:03.283Z,95034.00
2023-02-22T03:41:03.295Z,95034.00
2023-02-22T03:42:03.381Z,95034.00
2023-02-22T03:43:03.409Z,95032.00
2023-02-22T03:44:03.459Z,95034.00
2023-02-22T03:45:03.527Z,95032.00
2023-02-22T03:46:03.595Z,95034.00
2023-02-22T03:47:03.623Z,95032.00
2023-02-22T03:48:03.675Z,95030.00
2023-02-22T03:49:03.697Z,95032.00
2023-02-22T03:50:03.772Z,95032.00
2023-02-22T03:51:03.788Z,95030.00
2023-02-22T03:52:03.820Z,95034.00
2023-02-22T03:53:03.862Z,95034.00
2023-02-22T03:54:03.900Z,95036.00
2023-02-22T03:55:03.938Z,95032.00
2023-02-22T03:56:04.025Z,95032.00
2023-02-22T03:57:04.054Z,95030.00
2023-02-22T03:58:04.114Z,95030.00
2023-02-22T03:59:04.141Z,95030.00
2023-02-22T04:00:04.218Z,95032.00
2023-02-22T04:01:04.270Z,95034.00
2023-02-22T04:02:04.298Z,95034.00
2023-02-22T04:03:04.415Z,95034.00
2023-02-22T04:04:04.383Z,95034.00
2023-02-22T04:05:04.439Z,95036.00
2023-02-22T04:06:04.497Z,95034.00
2023-02-22T04:07:04.508Z,95036.00
2023-02-22T04:08:04.578Z,95032.00
2023-02-22T04:09:04.658Z,95034.00
2023-02-22T04:10:04.660Z,95034.00
2023-02-22T04:11:04.712Z,95034.00
2023-02-22T04:12:04.772Z,95032.00
2023-02-22T04:13:04.798Z,95030.00
2023-02-22T04:14:04.861Z,95034.00
2023-02-22T04:15:04.901Z,95032.00
2023-02-22T04:16:04.983Z,95032.00
2023-02-22T04:17:04.952Z,95030.00
2023-02-22T04:18:05.027Z,95030.00
2023-02-22T04:19:05.073Z,95032.00
2023-02-22T04:20:05.138Z,95030.00
2023-02-22T04:21:05.160Z,95030.00
2023-02-22T04:22:05.215Z,95030.00
2023-02-22T04:23:05.263Z,95030.00
2023-02-22T04:24:05.269Z,95024.00
2023-02-22T04:25:05.327Z,95030.00
2023-02-22T04:26:05.363Z,95028.00
2023-02-22T04:27:05.457Z,95024.00
2023-02-22T04:28:05.476Z,95026.00
2023-02-22T04:29:05.507Z,95026.00
2023-02-22T04:30:05.724Z,95026.00
2023-02-22T04:31:05.627Z,95028.00
2023-02-22T04:32:05.647Z,95030.00
2023-02-22T04:33:05.687Z,95026.00
2023-02-22T04:34:05.701Z,95026.00
2023-02-22T04:35:05.754Z,95024.00
2023-02-22T04:36:05.797Z,95024.00
2023-02-22T04:37:05.868Z,95024.00
2023-02-22T04:38:05.905Z,95028.00
2023-02-22T04:39:05.945Z,95026.00
2023-02-22T04:40:05.990Z,95022.00
2023-02-22T04:41:06.034Z,95020.00
2023-02-22T04:42:06.074Z,95020.00
2023-02-22T04:43:06.112Z,95020.00
2023-02-22T04:44:06.167Z,95016.00
2023-02-22T04:45:06.202Z,95018.00
2023-02-22T04:46:06.274Z,95018.00
2023-02-22T04:47:06.302Z,95014.00
2023-02-22T04:48:06.303Z,95018.00
2023-02-22T04:49:06.388Z,95018.00
2023-02-22T04:50:06.403Z,95016.00
2023-02-22T04:51:06.451Z,95014.00
2023-02-22T04:52:06.531Z,95014.00
2023-02-22T04:53:06.529Z,95014.00
2023-02-22T04:54:06.612Z,95018.00
2023-02-22T04:55:06.642Z,95018.00
2023-02-22T04:56:06.694Z,95014.00
2023-02-22T04:57:06.728Z,95012.00
2023-02-22T04:58:08.726Z,95010.00
2023-02-22T04:59:06.999Z,95010.00
2023-02-22T05:00:07.063Z,95008.00
2023-02-22T05:01:07.086Z,95008.00
2023-02-22T05:02:07.141Z,95008.00
2023-02-22T05:03:07.181Z,95006.00
2023-02-22T05:04:07.206Z,95006.00
2023-02-22T05:05:07.262Z,95004.00
2023-02-22T05:06:07.309Z,95008.00
2023-02-22T05:07:07.333Z,95004.00
2023-02-22T05:08:07.414Z,95004.00
2023-02-22T05:09:07.445Z,95004.00
2023-02-22T05:10:07.475Z,95002.00
2023-02-22T05:11:07.541Z,95008.00
2023-02-22T05:12:07.598Z,94998.00
2023-02-22T05:13:07.638Z,94998.00
2023-02-22T05:14:07.717Z,94998.00
2023-02-22T05:15:07.722Z,95002.00
2023-02-22T05:16:07.780Z,95002.00
2023-02-22T05:17:07.813Z,95002.00
2023-02-22T05:18:07.848Z,94996.00
2023-02-22T05:19:08.488Z,95002.00
2023-02-22T05:20:07.967Z,95002.00
2023-02-22T05:21:08.020Z,95000.00
2023-02-22T05:22:08.063Z,95002.00
2023-02-22T05:23:08.100Z,95002.00
2023-02-22T05:24:08.134Z,95000.00
2023-02-22T05:25:08.192Z,95000.00
2023-02-22T05:26:10.699Z,95002.00
2023-02-22T05:27:08.184Z,94998.00
2023-02-22T05:28:08.184Z,95002.00
2023-02-22T05:29:08.214Z,94998.00
2023-02-22T05:30:08.226Z,95000.00
2023-02-22T05:31:08.242Z,94998.00
2023-02-22T05:32:08.213Z,94996.00
2023-02-22T05:33:08.164Z,94996.00
2023-02-22T05:34:08.144Z,94998.00
2023-02-22T05:35:08.167Z,94996.00
2023-02-22T05:36:08.151Z,94996.00
2023-02-22T05:37:08.129Z,94998.00
2023-02-22T05:38:08.130Z,94996.00
2023-02-22T05:39:08.099Z,94998.00
2023-02-22T05:40:08.146Z,94998.00
2023-02-22T05:41:08.116Z,94996.00
2023-02-22T05:42:08.081Z,94996.00
2023-02-22T05:43:08.113Z,94998.00
2023-02-22T05:44:08.076Z,95002.00
2023-02-22T05:45:08.082Z,95004.00
2023-02-22T05:46:08.087Z,95000.00
2023-02-22T05:47:08.094Z,95000.00
2023-02-22T05:48:08.072Z,95002.00
2023-02-22T05:49:08.041Z,95002.00
2023-02-22T05:50:08.066Z,94998.00
2023-02-22T05:51:08.040Z,94996.00
2023-02-22T05:52:08.051Z,94994.00
2023-02-22T05:53:08.021Z,95000.00
2023-02-22T05:54:08.030Z,95000.00
2023-02-22T05:55:08.005Z,94998.00
2023-02-22T05:56:08.011Z,94998.00
2023-02-22T05:57:08.029Z,94998.00
2023-02-22T05:58:08.018Z,94998.00
2023-02-22T05:59:08.008Z,94996.00
2023-02-22T06:00:08.003Z,94996.00
2023-02-22T06:01:14.967Z,94996.00
2023-02-22T06:02:08.011Z,94996.00
2023-02-22T06:03:08.056Z,94994.00
2023-02-22T06:04:07.961Z,94996.00
2023-02-22T06:05:07.967Z,94994.00
2023-02-22T06:06:07.936Z,94994.00
2023-02-22T06:07:07.944Z,94991.00
2023-02-22T06:08:07.936Z,94994.00
2023-02-22T06:09:07.939Z,94992.00
2023-02-22T06:10:07.938Z,94994.00
2023-02-22T06:11:07.906Z,94992.00
2023-02-22T06:12:07.885Z,94992.00
2023-02-22T06:13:07.921Z,94996.00
2023-02-22T06:14:07.886Z,94998.00
2023-02-22T06:15:07.971Z,94994.00
2023-02-22T06:16:07.892Z,94996.00
2023-02-22T06:17:07.877Z,94994.00
2023-02-22T06:18:07.844Z,94994.00
2023-02-22T06:19:07.848Z,94996.00
2023-02-22T06:20:07.895Z,94996.00
2023-02-22T06:21:07.851Z,94998.00
2023-02-22T06:22:07.849Z,94998.00
2023-02-22T06:23:07.842Z,95004.00
2023-02-22T06:24:07.840Z,95000.00
2023-02-22T06:25:07.853Z,95002.00
2023-02-22T06:26:07.827Z,95000.00
2023-02-22T06:27:07.810Z,95002.00
2023-02-22T06:28:07.801Z,95002.00
2023-02-22T06:29:07.774Z,95008.00
2023-02-22T06:30:07.845Z,95008.00
2023-02-22T06:31:07.888Z,95006.00
2023-02-22T06:32:07.935Z,95008.00
2023-02-22T06:33:07.985Z,95010.00
2023-02-22T06:34:08.016Z,95006.00
2023-02-22T06:35:08.064Z,95002.00
2023-02-22T06:36:08.071Z,95010.00
2023-02-22T06:37:08.133Z,95012.00
2023-02-22T06:38:08.191Z,95008.00
2023-02-22T06:39:08.232Z,95012.00
2023-02-22T06:40:08.369Z,95012.00
2023-02-22T06:41:09.255Z,95014.00
2023-02-22T06:42:08.262Z,95014.00
2023-02-22T06:43:09.269Z,95016.00
2023-02-22T06:44:08.847Z,95014.00
2023-02-22T06:45:08.423Z,95016.00
2023-02-22T06:46:08.247Z,95018.00
2023-02-22T06:47:08.196Z,95016.00
2023-02-22T06:48:08.226Z,95014.00
2023-02-22T06:49:08.220Z,95012.00
2023-02-22T06:50:08.407Z,95018.00
2023-02-22T06:51:08.313Z,95018.00
2023-02-22T06:52:08.860Z,95018.00
2023-02-22T06:53:08.422Z,95016.00
2023-02-22T06:54:09.324Z,95018.00
2023-02-22T06:55:08.473Z,95016.00
2023-02-22T06:56:08.545Z,95020.00
2023-02-22T06:57:08.564Z,95020.00
2023-02-22T06:58:08.592Z,95020.00
2023-02-22T06:59:08.615Z,95020.00
2023-02-22T07:00:08.632Z,95022.00
2023-02-22T07:01:08.798Z,95020.00
2023-02-22T07:02:08.689Z,95020.00
2023-02-22T07:03:08.810Z,95018.00
2023-02-22T07:04:08.806Z,95022.00
2023-02-22T07:05:08.872Z,95018.00
2023-02-22T07:06:08.819Z,95018.00
2023-02-22T07:07:08.873Z,95020.00
2023-02-22T07:08:08.971Z,95018.00
2023-02-22T07:09:08.921Z,95018.00
2023-02-22T07:10:08.938Z,95020.00
2023-02-22T07:11:09.892Z,95018.00
2023-02-22T07:12:08.990Z,95016.00
2023-02-22T07:13:09.014Z,95018.00
2023-02-22T07:14:09.165Z,95020.00
2023-02-22T07:15:09.050Z,95018.00
2023-02-22T07:16:09.435Z,95016.00
2023-02-22T07:17:09.056Z,95016.00
2023-02-22T07:18:09.029Z,95016.00
2023-02-22T07:19:09.059Z,95014.00
2023-02-22T07:20:09.427Z,95016.00
2023-02-22T07:21:08.993Z,95012.00
2023-02-22T07:22:09.006Z,95016.00
2023-02-22T07:23:08.977Z,95014.00
2023-02-22T07:24:08.979Z,95012.00
2023-02-22T07:25:09.000Z,95012.00
2023-02-22T07:26:08.979Z,95012.00
2023-02-22T07:27:08.977Z,95014.00
2023-02-22T07:28:08.921Z,95014.00
2023-02-22T07:29:09.009Z,95012.00
2023-02-22T07:30:08.987Z,95014.00
2023-02-22T07:31:09.409Z,95014.00
2023-02-22T07:32:09.200Z,95014.00
2023-02-22T07:33:09.038Z,95016.00
2023-02-22T07:34:09.068Z,95016.00
2023-02-22T07:35:09.068Z,95014.00
2023-02-22T07:36:09.136Z,95014.00
2023-02-22T07:37:09.143Z,95012.00
2023-02-22T07:38:09.215Z,95012.00
2023-02-22T07:39:09.241Z,95006.00
2023-02-22T07:40:09.275Z,95008.00
2023-02-22T07:41:09.318Z,95002.00
2023-02-22T07:42:09.376Z,95002.00
2023-02-22T07:43:09.435Z,95002.00
2023-02-22T07:44:09.500Z,95000.00
2023-02-22T07:45:09.507Z,94998.00
2023-02-22T07:46:09.642Z,94998.00
2023-02-22T07:47:09.528Z,94996.00
2023-02-22T07:48:09.535Z,94994.00
2023-02-22T07:49:09.582Z,94994.00
2023-02-22T07:50:09.604Z,94991.00
2023-02-22T07:51:09.675Z,94992.00
2023-02-22T07:52:09.572Z,94989.00
2023-02-22T07:53:09.611Z,94989.00
2023-02-22T07:54:09.603Z,94989.00
2023-02-22T07:55:09.653Z,94991.00
2023-02-22T07:56:09.644Z,94989.00
2023-02-22T07:57:09.701Z,94991.00
2023-02-22T07:58:09.739Z,94989.00
2023-02-22T08:40:13.347Z,94944.00
2023-02-22T08:41:11.421Z,94945.00
2023-02-22T08:42:11.049Z,94945.00
2023-02-22T08:43:11.021Z,94944.00
2023-02-22T08:44:11.048Z,94940.00
2023-02-22T08:45:11.131Z,94930.00
2023-02-22T08:46:11.058Z,94928.00
2023-02-22T08:47:10.992Z,94928.00
2023-02-22T08:48:10.998Z,94928.00
2023-02-22T08:49:10.976Z,94924.00
2023-02-22T08:50:11.023Z,94924.00
2023-02-22T08:51:11.098Z,94922.00
2023-02-22T08:52:10.956Z,94920.00
2023-02-22T08:53:10.969Z,94918.00
2023-02-22T08:54:10.982Z,94916.00
2023-02-22T08:55:11.061Z,94916.00
2023-02-22T08:56:10.964Z,94912.00
2023-02-22T08:57:10.976Z,94912.00
2023-02-22T08:58:10.927Z,94912.00
2023-02-22T08:59:10.959Z,94908.00
2023-02-22T09:00:10.909Z,94910.00
2023-02-22T09:01:10.947Z,94910.00
2023-02-22T09:14:10.831Z,94891.00
2023-02-22T09:15:10.839Z,94889.00
2023-02-22T09:16:10.852Z,94891.00
2023-02-22T09:17:10.804Z,94889.00
2023-02-22T09:18:10.832Z,94889.00
2023-02-22T09:19:10.796Z,94887.00
2023-02-22T09:20:10.759Z,94885.00
2023-02-22T09:21:10.813Z,94883.00
2023-02-22T09:22:10.748Z,94881.00
2023-02-22T09:23:10.753Z,94879.00
2023-02-22T09:24:10.783Z,94877.00
2023-02-22T09:25:16.716Z,94873.00
2023-02-22T09:26:11.938Z,94875.00
2023-02-22T09:27:10.760Z,94875.00
2023-02-22T09:28:10.727Z,94869.00
2023-02-22T09:29:10.736Z,94867.00
2023-02-22T09:30:10.707Z,94865.00
2023-02-22T09:31:10.939Z,94867.00
2023-02-22T09:32:10.882Z,94867.00
2023-02-22T09:33:10.874Z,94863.00
2023-02-22T09:34:10.718Z,94863.00
2023-02-22T09:35:10.687Z,94859.00
2023-02-22T09:36:10.704Z,94861.00
2023-02-22T09:37:10.726Z,94857.00
2023-02-22T09:38:10.660Z,94855.00
2023-02-22T09:39:10.692Z,94853.00
2023-02-22T09:40:10.658Z,94855.00
2023-02-22T09:41:10.646Z,94850.00
2023-02-22T09:42:10.656Z,94848.00
2023-02-22T09:43:10.626Z,94848.00
2023-02-22T09:44:10.647Z,94846.00
2023-02-22T09:45:10.596Z,94846.00
2023-02-22T09:46:10.679Z,94844.00
2023-02-22T09:47:10.597Z,94844.00
2023-02-22T09:48:21.179Z,94840.00
2023-02-22T09:49:11.627Z,94842.00
2023-02-22T09:50:10.610Z,94838.00
2023-02-22T09:51:10.614Z,94836.00
2023-02-22T09:52:10.998Z,94840.00
2023-02-22T09:53:10.599Z,94836.00
2023-02-22T09:54:10.565Z,94834.00
2023-02-22T09:55:10.553Z,94828.00
2023-02-22T09:56:10.561Z,94828.00
2023-02-22T09:57:10.560Z,94828.00
2023-02-22T09:58:10.545Z,94828.00
2023-02-22T09:59:10.533Z,94828.00
2023-02-22T10:00:10.556Z,94828.00
2023-02-22T10:01:11.456Z,94824.00
2023-02-22T10:02:10.679Z,94822.00
2023-02-22T10:03:10.757Z,94820.00
2023-02-22T10:04:10.793Z,94818.00
2023-02-22T10:05:10.843Z,94813.00
2023-02-22T10:08:10.911Z,94813.00
2023-02-22T10:09:10.949Z,94813.00
2023-02-22T10:10:10.971Z,94809.00
2023-02-22T10:11:11.069Z,94805.00
2023-02-22T10:12:11.428Z,94805.00
2023-02-22T10:13:11.147Z,94803.00
2023-02-22T10:14:11.232Z,94805.00
2023-02-22T10:15:11.290Z,94803.00
2023-02-22T10:16:11.375Z,94801.00
2023-02-22T10:17:11.360Z,94801.00
2023-02-22T10:18:11.429Z,94795.00
2023-02-22T10:19:11.483Z,94797.00
2023-02-22T10:20:11.533Z,94793.00
2023-02-22T10:21:11.552Z,94793.00
2023-02-22T10:22:11.580Z,94791.00
2023-02-22T10:23:11.627Z,94793.00
2023-02-22T10:24:11.644Z,94791.00
2023-02-22T10:25:11.685Z,94791.00
2023-02-22T10:26:11.733Z,94791.00
2023-02-22T10:27:11.744Z,94785.00
2023-02-22T10:28:11.764Z,94787.00
2023-02-22T10:29:11.823Z,94789.00
2023-02-22T10:30:23.821Z,94785.00
2023-02-22T10:31:13.003Z,94785.00
2023-02-22T10:32:11.916Z,94779.00
2023-02-22T10:33:11.821Z,94779.00
2023-02-22T10:34:11.832Z,94781.00
2023-02-22T10:35:11.820Z,94779.00
2023-02-22T10:36:11.851Z,94779.00
2023-02-22T10:37:11.824Z,94777.00
2023-02-22T10:38:11.916Z,94775.00
2023-02-22T10:39:11.778Z,94771.00
2023-02-22T10:40:11.836Z,94771.00
2023-02-22T10:41:11.796Z,94769.00
2023-02-22T10:42:12.007Z,94767.00
2023-02-22T10:43:11.776Z,94764.00
2023-02-22T10:47:11.940Z,94760.00
2023-02-22T10:49:11.951Z,94754.00
2023-02-22T10:50:12.059Z,94754.00
2023-02-22T10:51:12.063Z,94748.00
2023-02-22T10:52:12.097Z,94752.00
2023-02-22T10:53:12.156Z,94752.00
2023-02-22T10:54:12.149Z,94748.00
2023-02-22T10:55:15.583Z,94744.00
2023-02-22T10:56:12.126Z,94744.00
2023-02-22T10:57:12.140Z,94744.00
2023-02-22T10:58:12.119Z,94740.00
2023-02-22T10:59:12.131Z,94740.00
2023-02-22T11:00:12.133Z,94738.00
2023-02-22T11:01:12.098Z,94738.00
2023-02-22T11:02:12.085Z,94734.00
2023-02-22T11:03:12.095Z,94734.00
2023-02-22T11:05:12.096Z,94728.00
2023-02-22T11:06:12.030Z,94732.00
2023-02-22T11:07:12.048Z,94728.00
2023-02-22T11:08:12.032Z,94728.00
2023-02-22T11:17:12.464Z,94709.00
2023-02-22T11:18:11.946Z,94709.00
2023-02-22T11:19:11.953Z,94707.00
2023-02-22T11:20:11.940Z,94705.00
2023-02-22T11:21:11.967Z,94705.00
2023-02-22T11:22:11.958Z,94705.00
2023-02-22T11:23:11.922Z,94699.00
2023-02-22T11:24:11.931Z,94697.00
2023-02-22T11:25:11.901Z,94693.00
2023-02-22T11:26:11.915Z,94691.00
2023-02-22T11:27:11.952Z,94695.00
2023-02-22T11:28:11.917Z,94691.00
2023-02-22T11:29:11.882Z,94689.00
2023-02-22T11:30:11.901Z,94687.00
2023-02-22T11:31:11.956Z,94687.00
2023-02-22T11:32:11.900Z,94685.00
2023-02-22T11:33:11.899Z,94683.00
2023-02-22T11:34:11.866Z,94681.00
2023-02-22T11:35:11.862Z,94674.00
2023-02-22T11:36:11.878Z,94674.00
2023-02-22T11:37:11.808Z,94672.00
2023-02-22T11:38:11.921Z,94672.00
2023-02-22T11:39:12.084Z,94670.00
2023-02-22T11:40:11.968Z,94668.00
2023-02-22T11:41:11.989Z,94662.00
2023-02-22T11:42:12.506Z,94666.00
2023-02-22T11:43:12.167Z,94660.00
2023-02-22T11:44:12.144Z,94660.00
2023-02-22T11:45:12.164Z,94658.00
2023-02-22T11:46:12.269Z,94654.00
2023-02-22T11:47:12.463Z,94658.00
2023-02-22T11:48:12.297Z,94656.00
2023-02-22T11:49:12.357Z,94658.00
2023-02-22T11:50:12.383Z,94656.00
2023-02-22T11:51:14.507Z,94654.00
2023-02-22T11:52:12.466Z,94654.00
2023-02-22T11:53:12.997Z,94652.00
2023-02-22T11:54:12.511Z,94648.00
2023-02-22T11:55:12.579Z,94648.00
2023-02-22T11:56:12.596Z,94646.00
2023-02-22T11:57:12.665Z,94644.00
2023-02-22T11:58:13.782Z,94642.00
2023-02-22T11:59:12.737Z,94640.00
2023-02-22T12:00:12.789Z,94642.00
2023-02-22T12:01:12.848Z,94634.00
2023-02-22T12:02:12.866Z,94632.00
2023-02-22T12:03:12.934Z,94632.00
2023-02-22T12:04:13.091Z,94634.00
2023-02-22T12:05:13.087Z,94632.00
2023-02-22T12:06:13.047Z,94628.00
2023-02-22T12:07:13.105Z,94630.00
2023-02-22T12:08:19.702Z,94625.00
2023-02-22T12:09:14.276Z,94625.00
2023-02-22T12:10:13.201Z,94625.00
2023-02-22T12:11:13.122Z,94627.00
2023-02-22T12:12:13.105Z,94625.00
2023-02-22T12:13:13.109Z,94619.00
2023-02-22T12:14:13.179Z,94615.00
2023-02-22T12:15:13.090Z,94613.00
2023-02-22T12:16:13.166Z,94611.00
2023-02-22T12:17:13.107Z,94607.00
2023-02-22T12:18:13.122Z,94609.00
2023-02-22T12:19:13.074Z,94609.00
2023-02-22T12:20:13.125Z,94611.00
2023-02-22T12:21:13.241Z,94611.00
2023-02-22T12:22:13.245Z,94607.00
2023-02-22T12:23:13.295Z,94603.00
2023-02-22T12:24:13.321Z,94599.00
2023-02-22T12:25:13.409Z,94603.00
2023-02-22T12:26:13.451Z,94601.00
2023-02-22T12:27:13.515Z,94603.00
2023-02-22T12:28:24.271Z,94605.00
2023-02-22T12:29:14.563Z,94599.00
2023-02-22T12:30:13.673Z,94597.00
2023-02-22T12:31:13.673Z,94599.00
2023-02-22T12:32:13.730Z,94597.00
2023-02-22T12:33:14.024Z,94597.00
2023-02-22T12:34:13.807Z,94595.00
2023-02-22T12:35:13.740Z,94591.00
2023-02-22T12:36:13.783Z,94595.00
2023-02-22T12:37:13.833Z,94591.00
2023-02-22T12:38:13.988Z,94589.00
2023-02-22T12:39:13.919Z,94593.00
2023-02-22T12:40:13.946Z,94589.00
2023-02-22T12:41:14.081Z,94588.00
2023-02-22T12:42:14.030Z,94586.00
2023-02-22T12:43:14.111Z,94586.00
2023-02-22T12:44:14.168Z,94584.00
2023-02-22T12:45:14.173Z,94580.00
2023-02-22T12:46:14.267Z,94580.00
2023-02-22T12:47:14.237Z,94578.00
2023-02-22T12:48:14.283Z,94574.00
2023-02-22T12:49:14.320Z,94572.00
2023-02-22T12:50:15.953Z,94570.00
2023-02-22T12:51:14.470Z,94570.00
2023-02-22T12:52:21.785Z,94570.00